Time;durP1;ratioP1;P1;durP2;ratioP2;P2;SDS_P1;SDS_P2;PMS_P1;PMS_P2;Temp;Humidity;BMP_temperature;BMP_pressure;BME280_temperature;BME280_humidity;BME280_pressure;Samples;Min_cycle;Max_cycle;Signal;HPM_P1;HPM_P2
2023/06/25 00:02:00;;;;;;;15.13;8.63;;;;;;;;;;5013399;28;20029;-77
2023/06/25 00:04:26;;;;;;;14.10;8.30;;;;;;;;;;5013428;28;20034;-77
2023/06/25 00:06:53;;;;;;;12.70;8.23;;;;;;;;;;5014330;28;20044;-76
2023/06/25 00:09:19;;;;;;;14.95;8.45;;;;;;;;;;5012852;28;20037;-78
2023/06/25 00:11:45;;;;;;;12.02;7.97;;;;;;;;;;5014836;28;20022;-76
2023/06/25 00:14:12;;;;;;;12.60;7.85;;;;;;;;;;5013761;28;20034;-76
2023/06/25 00:16:37;;;;;;;15.98;8.48;;;;;;;;;;5012724;28;20030;-78
2023/06/25 00:19:03;;;;;;;15.70;8.30;;;;;;;;;;5014158;28;20426;-77
2023/06/25 00:21:29;;;;;;;13.02;8.25;;;;;;;;;;5014202;28;20362;-77
2023/06/25 00:23:55;;;;;;;17.25;7.93;;;;;;;;;;5013969;28;20073;-76
2023/06/25 00:26:21;;;;;;;11.73;7.55;;;;;;;;;;5012480;28;20057;-76
2023/06/25 00:28:48;;;;;;;11.20;7.90;;;;;;;;;;5012637;28;20047;-78
2023/06/25 00:31:13;;;;;;;14.10;8.10;;;;;;;;;;5013968;28;20041;-76
2023/06/25 00:33:41;;;;;;;12.63;8.30;;;;;;;;;;5012596;28;20221;-78
2023/06/25 00:36:07;;;;;;;11.23;7.55;;;;;;;;;;5013799;28;20411;-76
2023/06/25 00:38:38;;;;;;;15.35;7.88;;;;;;;;;;5012610;28;20057;-77
2023/06/25 00:41:08;;;;;;;15.10;8.23;;;;;;;;;;5012453;28;20034;-77
2023/06/25 00:43:41;;;;;;;11.35;7.50;;;;;;;;;;5013861;28;20058;-75
2023/06/25 00:46:15;;;;;;;12.40;7.65;;;;;;;;;;5013474;28;20371;-78
2023/06/25 00:48:45;;;;;;;13.88;8.63;;;;;;;;;;5013926;28;20026;-76
2023/06/25 00:51:14;;;;;;;14.70;8.30;;;;;;;;;;5011699;28;20026;-77
2023/06/25 00:53:40;;;;;;;26.13;9.77;;;;;;;;;;5012370;28;20014;-76
2023/06/25 00:56:07;;;;;;;14.32;7.85;;;;;;;;;;5002234;28;20037;-78
2023/06/25 00:58:38;;;;;;;15.48;9.05;;;;;;;;;;4994402;28;20089;-76
2023/06/25 01:01:11;;;;;;;12.60;8.17;;;;;;;;;;5003112;28;20040;-75
2023/06/25 01:03:54;;;;;;;10.63;7.18;;;;;;;;;;5011978;28;20279;-77
2023/06/25 01:06:35;;;;;;;14.13;7.97;;;;;;;;;;4992612;28;20034;-76
2023/06/25 01:09:01;;;;;;;11.67;8.13;;;;;;;;;;4994008;28;20105;-76
2023/06/25 01:11:30;;;;;;;12.63;8.93;;;;;;;;;;5020543;28;20131;-76
2023/06/25 01:13:56;;;;;;;12.52;7.97;;;;;;;;;;5013488;28;20251;-77
2023/06/25 01:16:23;;;;;;;11.55;7.97;;;;;;;;;;5011238;28;20038;-77
2023/06/25 01:18:50;;;;;;;10.55;7.25;;;;;;;;;;5011570;28;20022;-78
2023/06/25 01:21:22;;;;;;;11.32;8.13;;;;;;;;;;5011563;28;20034;-76
2023/06/25 01:23:52;;;;;;;11.48;7.25;;;;;;;;;;5011228;28;20038;-76
2023/06/25 01:26:18;;;;;;;12.23;8.15;;;;;;;;;;5010975;28;20497;-78
2023/06/25 01:28:45;;;;;;;12.55;8.18;;;;;;;;;;5012087;28;20053;-76
2023/06/25 01:31:10;;;;;;;11.35;8.57;;;;;;;;;;5012768;28;20021;-77
2023/06/25 01:33:36;;;;;;;14.68;8.02;;;;;;;;;;5012833;28;20029;-76
2023/06/25 01:36:04;;;;;;;14.82;8.48;;;;;;;;;;5011444;28;20056;-76
2023/06/25 01:38:30;;;;;;;15.35;8.15;;;;;;;;;;4994227;28;20044;-77
2023/06/25 01:40:55;;;;;;;15.27;8.00;;;;;;;;;;5011190;28;20030;-76
2023/06/25 01:43:24;;;;;;;13.77;9.25;;;;;;;;;;5010780;28;20060;-77
2023/06/25 01:45:57;;;;;;;12.98;7.80;;;;;;;;;;5013018;28;20026;-76
2023/06/25 01:48:27;;;;;;;13.43;7.90;;;;;;;;;;5010953;28;20120;-78
2023/06/25 01:50:53;;;;;;;12.80;7.72;;;;;;;;;;5012232;28;20686;-76
2023/06/25 01:53:22;;;;;;;13.35;7.97;;;;;;;;;;5011528;28;20030;-76
2023/06/25 01:55:47;;;;;;;14.52;7.80;;;;;;;;;;5011890;28;20139;-76
2023/06/25 01:58:14;;;;;;;10.57;7.63;;;;;;;;;;5010891;28;20124;-78
2023/06/25 02:00:40;;;;;;;13.43;8.55;;;;;;;;;;5012672;28;20104;-76
2023/06/25 02:03:06;;;;;;;11.27;7.63;;;;;;;;;;5010409;28;20129;-78
2023/06/25 02:05:31;;;;;;;14.18;7.90;;;;;;;;;;5011997;28;20295;-76
2023/06/25 02:07:57;;;;;;;11.60;7.35;;;;;;;;;;5010977;28;20048;-77
2023/06/25 02:10:26;;;;;;;15.30;8.07;;;;;;;;;;5011753;28;20060;-76
2023/06/25 02:12:52;;;;;;;15.05;7.72;;;;;;;;;;5011059;28;20033;-78
2023/06/25 02:15:17;;;;;;;16.83;7.70;;;;;;;;;;5010742;28;20022;-75
2023/06/25 02:17:44;;;;;;;10.77;7.30;;;;;;;;;;5011985;28;20030;-77
2023/06/25 02:20:12;;;;;;;13.20;7.70;;;;;;;;;;5010900;28;20117;-78
2023/06/25 02:22:38;;;;;;;12.40;7.47;;;;;;;;;;5010896;28;20032;-76
2023/06/25 02:25:04;;;;;;;13.68;7.43;;;;;;;;;;5010274;28;20117;-77
2023/06/25 02:27:29;;;;;;;13.52;7.70;;;;;;;;;;5011128;28;20042;-76
2023/06/25 02:29:55;;;;;;;14.60;7.90;;;;;;;;;;5011634;28;20082;-76
2023/06/25 02:32:21;;;;;;;11.75;7.68;;;;;;;;;;5012013;28;20030;-75
2023/06/25 02:34:46;;;;;;;14.80;9.05;;;;;;;;;;5010740;28;20105;-76
2023/06/25 02:37:15;;;;;;;16.92;7.80;;;;;;;;;;5010237;28;20060;-76
2023/06/25 02:39:41;;;;;;;14.27;8.80;;;;;;;;;;5010572;28;20429;-75
2023/06/25 02:42:07;;;;;;;13.45;7.80;;;;;;;;;;5012111;28;20022;-78
2023/06/25 02:44:33;;;;;;;13.13;7.45;;;;;;;;;;5012065;28;20022;-76
2023/06/25 02:47:07;;;;;;;14.48;7.97;;;;;;;;;;5011272;28;20485;-78
2023/06/25 02:49:33;;;;;;;12.38;7.82;;;;;;;;;;5011665;28;20037;-76
2023/06/25 02:51:59;;;;;;;13.52;7.60;;;;;;;;;;5016287;28;20030;-76
2023/06/25 02:54:24;;;;;;;14.15;8.77;;;;;;;;;;5015965;28;20021;-76
2023/06/25 02:56:52;;;;;;;14.15;7.75;;;;;;;;;;5014437;28;20099;-78
2023/06/25 02:59:17;;;;;;;13.38;8.05;;;;;;;;;;5013674;28;20051;-78
2023/06/25 03:01:43;;;;;;;12.48;7.43;;;;;;;;;;5015685;28;20413;-76
2023/06/25 03:04:11;;;;;;;11.40;7.35;;;;;;;;;;5014919;28;20030;-77
2023/06/25 03:06:37;;;;;;;11.75;7.20;;;;;;;;;;5014709;28;20060;-75
2023/06/25 03:09:03;;;;;;;13.25;7.57;;;;;;;;;;5014426;28;20038;-79
2023/06/25 03:11:28;;;;;;;11.80;7.78;;;;;;;;;;5014441;28;20072;-76
2023/06/25 03:13:57;;;;;;;16.27;8.18;;;;;;;;;;5014898;28;20030;-76
2023/06/25 03:16:24;;;;;;;17.08;7.72;;;;;;;;;;5016179;28;20037;-77
2023/06/25 03:18:52;;;;;;;14.52;8.43;;;;;;;;;;5014484;28;20036;-77
2023/06/25 03:21:21;;;;;;;13.20;8.20;;;;;;;;;;4999321;28;20478;-77
2023/06/25 03:23:47;;;;;;;16.00;8.23;;;;;;;;;;5015731;28;20501;-77
2023/06/25 03:26:13;;;;;;;14.70;8.02;;;;;;;;;;5014317;28;20033;-75
2023/06/25 03:28:38;;;;;;;11.60;7.97;;;;;;;;;;5014540;28;20030;-74
2023/06/25 03:31:04;;;;;;;12.07;8.52;;;;;;;;;;5015194;28;20041;-77
2023/06/25 03:33:29;;;;;;;12.45;8.43;;;;;;;;;;5014851;28;20026;-76
2023/06/25 03:35:55;;;;;;;12.32;7.85;;;;;;;;;;5015374;28;20064;-76
2023/06/25 03:38:24;;;;;;;12.52;8.45;;;;;;;;;;5013674;28;20068;-76
2023/06/25 03:40:49;;;;;;;13.98;7.60;;;;;;;;;;5016176;28;20474;-77
2023/06/25 03:43:16;;;;;;;13.65;7.50;;;;;;;;;;5013954;28;20040;-77
2023/06/25 03:45:42;;;;;;;13.60;7.57;;;;;;;;;;5014373;28;20073;-77
2023/06/25 03:48:08;;;;;;;16.30;8.27;;;;;;;;;;5015892;28;20030;-77
2023/06/25 03:50:35;;;;;;;13.77;8.20;;;;;;;;;;5015033;28;20030;-75
2023/06/25 03:53:01;;;;;;;14.40;8.27;;;;;;;;;;5014669;28;20030;-75
2023/06/25 03:55:27;;;;;;;13.40;8.68;;;;;;;;;;5013533;28;20569;-75
2023/06/25 03:57:56;;;;;;;14.70;7.80;;;;;;;;;;5013040;28;20105;-79
2023/06/25 04:00:21;;;;;;;11.18;7.65;;;;;;;;;;5013421;28;20030;-75
2023/06/25 04:02:47;;;;;;;15.63;8.50;;;;;;;;;;5014377;28;20449;-76
2023/06/25 04:05:16;;;;;;;13.13;8.18;;;;;;;;;;5013317;28;20085;-77
2023/06/25 04:07:43;;;;;;;14.00;8.07;;;;;;;;;;5013630;28;20022;-77
2023/06/25 04:10:09;;;;;;;13.82;7.97;;;;;;;;;;5014597;28;20025;-79
2023/06/25 04:12:34;;;;;;;14.35;6.88;;;;;;;;;;5012740;28;20054;-78
2023/06/25 04:15:00;;;;;;;10.48;7.32;;;;;;;;;;5012651;28;20053;-75
2023/06/25 04:17:28;;;;;;;12.32;6.97;;;;;;;;;;5023025;28;20030;-77
2023/06/25 04:19:54;;;;;;;16.67;8.23;;;;;;;;;;5014283;28;20060;-77
2023/06/25 04:22:19;;;;;;;11.23;7.60;;;;;;;;;;5013427;28;20064;-74
2023/06/25 04:24:46;;;;;;;12.98;7.97;;;;;;;;;;5013731;28;20048;-77
2023/06/25 04:27:16;;;;;;;13.52;7.43;;;;;;;;;;5013987;28;20033;-76
2023/06/25 04:29:42;;;;;;;10.05;7.07;;;;;;;;;;5013007;28;20040;-76
2023/06/25 04:32:08;;;;;;;17.05;7.20;;;;;;;;;;5014018;28;20026;-77
2023/06/25 04:34:36;;;;;;;10.35;6.85;;;;;;;;;;5012853;28;20052;-76
2023/06/25 04:37:01;;;;;;;11.27;7.38;;;;;;;;;;5012135;28;20485;-77
2023/06/25 04:39:30;;;;;;;11.30;7.45;;;;;;;;;;5012516;28;20056;-76
2023/06/25 04:41:58;;;;;;;17.55;7.78;;;;;;;;;;5014122;28;20034;-76
2023/06/25 04:44:25;;;;;;;13.30;7.70;;;;;;;;;;5012115;28;20026;-77
2023/06/25 04:46:51;;;;;;;11.68;7.40;;;;;;;;;;5013887;28;20048;-78
2023/06/25 04:49:16;;;;;;;12.55;7.53;;;;;;;;;;5012136;28;20034;-77
2023/06/25 04:51:46;;;;;;;12.90;7.78;;;;;;;;;;5013489;28;20025;-76
2023/06/25 04:54:13;;;;;;;17.00;7.90;;;;;;;;;;5012313;28;20029;-76
2023/06/25 04:56:39;;;;;;;11.40;8.35;;;;;;;;;;4995797;28;20038;-77
2023/06/25 04:59:06;;;;;;;13.48;8.25;;;;;;;;;;5013508;28;20499;-77
2023/06/25 05:01:34;;;;;;;13.98;8.27;;;;;;;;;;5012277;28;20033;-77
2023/06/25 05:03:59;;;;;;;11.68;8.00;;;;;;;;;;5013190;28;20026;-77
2023/06/25 05:06:28;;;;;;;11.40;7.93;;;;;;;;;;5012032;28;20428;-77
2023/06/25 05:08:55;;;;;;;12.98;8.25;;;;;;;;;;5012699;28;20029;-78
2023/06/25 05:11:21;;;;;;;12.80;7.95;;;;;;;;;;4994932;28;20033;-78
2023/06/25 05:13:46;;;;;;;13.77;7.78;;;;;;;;;;5010515;28;20113;-77
2023/06/25 05:16:12;;;;;;;12.32;8.35;;;;;;;;;;5028608;28;20022;-76
2023/06/25 05:18:41;;;;;;;12.77;7.13;;;;;;;;;;5013016;28;20026;-75
2023/06/25 05:21:07;;;;;;;13.68;7.25;;;;;;;;;;5011739;28;20025;-76
2023/06/25 05:23:43;;;;;;;12.18;6.82;;;;;;;;;;5013715;28;20448;-77
2023/06/25 05:26:09;;;;;;;12.15;6.78;;;;;;;;;;5011848;28;20121;-77
2023/06/25 05:28:35;;;;;;;13.05;7.65;;;;;;;;;;5012142;28;20033;-79
2023/06/25 05:31:01;;;;;;;14.88;8.35;;;;;;;;;;5012893;28;20030;-77
2023/06/25 05:33:27;;;;;;;13.50;7.57;;;;;;;;;;5011571;28;20068;-76
2023/06/25 05:35:53;;;;;;;10.70;6.47;;;;;;;;;;5012700;28;20022;-76
2023/06/25 05:38:18;;;;;;;12.30;6.97;;;;;;;;;;5013667;28;20026;-77
2023/06/25 05:40:44;;;;;;;13.68;7.35;;;;;;;;;;5012230;28;20026;-76
2023/06/25 05:43:10;;;;;;;10.60;6.70;;;;;;;;;;5012671;28;20068;-76
2023/06/25 05:45:35;;;;;;;11.32;8.55;;;;;;;;;;5012745;28;20450;-75
2023/06/25 05:48:01;;;;;;;11.88;7.35;;;;;;;;;;5011068;28;20037;-77
2023/06/25 05:50:26;;;;;;;12.00;6.90;;;;;;;;;;5013721;28;20033;-78
2023/06/25 05:52:52;;;;;;;9.13;6.18;;;;;;;;;;5012792;28;20026;-76
2023/06/25 05:55:18;;;;;;;15.55;7.93;;;;;;;;;;5012693;28;20026;-76
2023/06/25 05:57:46;;;;;;;11.77;7.30;;;;;;;;;;5011157;28;20028;-76
2023/06/25 06:00:13;;;;;;;12.77;7.13;;;;;;;;;;5012484;28;20485;-76
2023/06/25 06:02:39;;;;;;;13.15;7.88;;;;;;;;;;5010040;28;20093;-77
2023/06/25 06:05:06;;;;;;;10.73;7.60;;;;;;;;;;5009637;28;20176;-78
2023/06/25 06:07:32;;;;;;;11.23;7.13;;;;;;;;;;5011320;28;20038;-77
2023/06/25 06:09:58;;;;;;;9.90;7.28;;;;;;;;;;5009541;28;20026;-78
2023/06/25 06:12:24;;;;;;;15.65;7.55;;;;;;;;;;5010624;28;20037;-78
2023/06/25 06:14:49;;;;;;;12.13;6.82;;;;;;;;;;5010937;28;20037;-77
2023/06/25 06:17:15;;;;;;;10.07;7.07;;;;;;;;;;5009000;28;20213;-78
2023/06/25 06:19:40;;;;;;;9.70;6.65;;;;;;;;;;5010594;28;20044;-78
2023/06/25 06:22:06;;;;;;;9.90;6.75;;;;;;;;;;5009515;28;20508;-79
2023/06/25 06:24:32;;;;;;;10.95;7.13;;;;;;;;;;5009186;28;20401;-77
2023/06/25 06:26:57;;;;;;;11.98;6.65;;;;;;;;;;5010825;28;20025;-79
2023/06/25 06:29:23;;;;;;;9.15;6.72;;;;;;;;;;5010443;28;20486;-77
2023/06/25 06:31:48;;;;;;;11.80;7.10;;;;;;;;;;5010105;28;20168;-78
2023/06/25 06:34:14;;;;;;;14.13;7.75;;;;;;;;;;5010056;28;20021;-76
2023/06/25 06:36:39;;;;;;;12.63;6.93;;;;;;;;;;5010243;28;20037;-77
2023/06/25 06:39:05;;;;;;;12.43;7.80;;;;;;;;;;5008318;28;20033;-79
2023/06/25 06:41:30;;;;;;;13.63;6.75;;;;;;;;;;5010364;28;20052;-78
2023/06/25 06:44:18;;;;;;;9.63;6.22;;;;;;;;;;5009849;28;20034;-78
2023/06/25 06:46:45;;;;;;;9.57;6.28;;;;;;;;;;5010291;28;20501;-78
2023/06/25 06:49:11;;;;;;;13.32;6.20;;;;;;;;;;5008840;28;20029;-77
2023/06/25 06:51:38;;;;;;;9.18;6.38;;;;;;;;;;5008865;28;20088;-77
2023/06/25 06:54:04;;;;;;;12.52;7.18;;;;;;;;;;5008776;28;20120;-77
2023/06/25 06:56:30;;;;;;;9.43;6.55;;;;;;;;;;5008875;28;20022;-78
2023/06/25 06:58:56;;;;;;;7.28;5.20;;;;;;;;;;5008614;28;20477;-77
2023/06/25 07:01:21;;;;;;;10.10;7.85;;;;;;;;;;5008184;28;20022;-74
2023/06/25 07:03:47;;;;;;;11.32;5.88;;;;;;;;;;5008590;28;20022;-79
2023/06/25 07:06:12;;;;;;;10.90;6.05;;;;;;;;;;5008885;28;20049;-77
2023/06/25 07:08:38;;;;;;;10.02;5.85;;;;;;;;;;5008757;28;20018;-78
2023/06/25 07:11:03;;;;;;;10.13;6.88;;;;;;;;;;5008790;28;20038;-79
2023/06/25 07:13:30;;;;;;;8.75;5.75;;;;;;;;;;5010426;28;20030;-78
2023/06/25 07:15:55;;;;;;;10.85;6.35;;;;;;;;;;5008476;28;20022;-77
2023/06/25 07:18:21;;;;;;;9.82;5.88;;;;;;;;;;5008224;28;20026;-77
2023/06/25 07:20:46;;;;;;;9.50;6.30;;;;;;;;;;5010418;28;20113;-77
2023/06/25 07:23:15;;;;;;;9.27;6.00;;;;;;;;;;5007793;28;20033;-78
2023/06/25 07:25:40;;;;;;;9.60;5.60;;;;;;;;;;5009335;28;20124;-78
2023/06/25 07:28:09;;;;;;;7.65;5.82;;;;;;;;;;5008283;28;20118;-78
2023/06/25 07:30:38;;;;;;;9.55;5.72;;;;;;;;;;5010309;28;20133;-78
2023/06/25 07:33:04;;;;;;;10.13;6.00;;;;;;;;;;5010261;28;20114;-78
2023/06/25 07:35:29;;;;;;;8.18;5.47;;;;;;;;;;5008728;28;20463;-79
2023/06/25 07:37:55;;;;;;;10.25;6.18;;;;;;;;;;5012565;28;20033;-79
2023/06/25 07:40:20;;;;;;;9.02;5.35;;;;;;;;;;5012381;28;20444;-77
2023/06/25 07:42:46;;;;;;;9.18;5.97;;;;;;;;;;5012366;28;20048;-78
2023/06/25 07:45:11;;;;;;;10.35;5.70;;;;;;;;;;5012421;28;20033;-77
2023/06/25 07:47:37;;;;;;;10.70;5.65;;;;;;;;;;5012434;28;20030;-78
2023/06/25 07:50:03;;;;;;;9.00;5.63;;;;;;;;;;5013496;28;20026;-78
2023/06/25 07:52:28;;;;;;;10.35;5.57;;;;;;;;;;5012272;28;20128;-79
2023/06/25 07:54:54;;;;;;;10.98;5.55;;;;;;;;;;5011331;28;20021;-77
2023/06/25 07:57:19;;;;;;;7.10;4.88;;;;;;;;;;5012971;28;20030;-78
2023/06/25 07:59:45;;;;;;;10.10;5.60;;;;;;;;;;5013086;28;20030;-77
2023/06/25 08:02:11;;;;;;;9.80;4.63;;;;;;;;;;5013016;28;20026;-78
2023/06/25 08:04:36;;;;;;;6.95;4.57;;;;;;;;;;5013259;28;20021;-78
2023/06/25 08:07:02;;;;;;;7.25;4.97;;;;;;;;;;5013035;28;20030;-79
2023/06/25 08:09:28;;;;;;;6.50;4.38;;;;;;;;;;5012913;28;20033;-77
2023/06/25 08:11:53;;;;;;;5.78;4.25;;;;;;;;;;5012208;28;20032;-78
2023/06/25 08:14:19;;;;;;;7.85;4.25;;;;;;;;;;5011234;28;20018;-80
2023/06/25 08:16:44;;;;;;;6.35;4.55;;;;;;;;;;5012579;28;20029;-76
2023/06/25 08:19:10;;;;;;;7.90;4.57;;;;;;;;;;5012444;28;20108;-78
2023/06/25 08:21:35;;;;;;;9.50;5.05;;;;;;;;;;5011217;28;20029;-78
2023/06/25 08:24:01;;;;;;;7.65;4.53;;;;;;;;;;5011120;28;20054;-78
2023/06/25 08:26:27;;;;;;;8.80;4.60;;;;;;;;;;5010946;28;20040;-79
2023/06/25 08:28:52;;;;;;;6.90;4.65;;;;;;;;;;5011374;28;20071;-77
2023/06/25 08:31:18;;;;;;;7.60;4.85;;;;;;;;;;5011161;28;20033;-78
2023/06/25 08:33:43;;;;;;;12.65;4.88;;;;;;;;;;5012358;28;20504;-77
2023/06/25 08:36:09;;;;;;;8.18;5.20;;;;;;;;;;5011297;28;20092;-78
2023/06/25 08:38:36;;;;;;;22.08;5.28;;;;;;;;;;5011473;28;20102;-77
2023/06/25 08:41:02;;;;;;;7.80;5.05;;;;;;;;;;4995920;28;20034;-78
2023/06/25 08:43:29;;;;;;;9.35;6.10;;;;;;;;;;5012903;28;20036;-77
2023/06/25 08:45:54;;;;;;;7.78;4.85;;;;;;;;;;5012164;28;20038;-77
2023/06/25 08:48:23;;;;;;;11.27;6.43;;;;;;;;;;5011724;28;20033;-78
2023/06/25 08:51:00;;;;;;;6.65;4.57;;;;;;;;;;5012050;28;20032;-77
2023/06/25 08:53:28;;;;;;;6.38;4.88;;;;;;;;;;5010930;28;20013;-81
2023/06/25 08:56:00;;;;;;;7.25;5.18;;;;;;;;;;5010389;28;20457;-76
2023/06/25 08:58:26;;;;;;;8.80;5.35;;;;;;;;;;5010687;28;20022;-77
2023/06/25 09:00:56;;;;;;;6.95;4.78;;;;;;;;;;5011106;28;20338;-76
2023/06/25 09:03:21;;;;;;;9.73;5.17;;;;;;;;;;5010165;28;20049;-77
2023/06/25 09:05:54;;;;;;;6.53;4.80;;;;;;;;;;5027375;28;20068;-77
2023/06/25 09:08:24;;;;;;;6.00;4.25;;;;;;;;;;5012151;28;20053;-77
2023/06/25 09:10:55;;;;;;;9.85;5.60;;;;;;;;;;4994065;28;20474;-79
2023/06/25 09:13:22;;;;;;;7.23;4.77;;;;;;;;;;5011943;28;20474;-79
2023/06/25 09:15:49;;;;;;;6.43;4.20;;;;;;;;;;5010550;28;20152;-77
2023/06/25 09:18:14;;;;;;;4.95;3.55;;;;;;;;;;5009611;28;20543;-78
2023/06/25 09:20:46;;;;;;;4.80;3.80;;;;;;;;;;5011794;28;20207;-77
2023/06/25 09:23:18;;;;;;;6.03;4.20;;;;;;;;;;5009876;28;20048;-79
2023/06/25 09:25:44;;;;;;;5.78;4.13;;;;;;;;;;5011894;28;20182;-77
2023/06/25 09:28:09;;;;;;;6.97;4.40;;;;;;;;;;5010508;28;20124;-77
2023/06/25 09:30:38;;;;;;;9.07;4.65;;;;;;;;;;5011959;28;20481;-80
2023/06/25 09:33:05;;;;;;;5.32;4.03;;;;;;;;;;5011578;28;20385;-76
2023/06/25 09:35:32;;;;;;;7.20;4.25;;;;;;;;;;5012554;28;20523;-78
2023/06/25 09:37:58;;;;;;;7.90;4.57;;;;;;;;;;5012072;28;20113;-79
2023/06/25 09:40:23;;;;;;;6.35;4.32;;;;;;;;;;5010971;28;20442;-78
2023/06/25 09:42:55;;;;;;;6.30;4.00;;;;;;;;;;5011378;28;20030;-78
2023/06/25 09:45:22;;;;;;;5.90;3.88;;;;;;;;;;5011787;28;20048;-76
2023/06/25 09:47:49;;;;;;;8.40;4.38;;;;;;;;;;5010695;28;20089;-79
2023/06/25 09:50:25;;;;;;;4.22;3.50;;;;;;;;;;5011442;28;20515;-79
2023/06/25 09:52:54;;;;;;;8.82;7.38;;;;;;;;;;5011631;28;20037;-79
2023/06/25 09:55:21;;;;;;;7.13;4.15;;;;;;;;;;5009674;28;20071;-78
2023/06/25 09:57:49;;;;;;;6.00;3.92;;;;;;;;;;5009806;28;20022;-77
2023/06/25 10:00:19;;;;;;;5.43;4.10;;;;;;;;;;5010621;28;20036;-78
2023/06/25 10:02:44;;;;;;;7.30;4.40;;;;;;;;;;5011426;28;20388;-77
2023/06/25 10:05:11;;;;;;;6.03;3.85;;;;;;;;;;5010093;28;20109;-78
2023/06/25 10:07:36;;;;;;;5.78;3.40;;;;;;;;;;5011725;28;20033;-78
2023/06/25 10:10:02;;;;;;;7.07;4.53;;;;;;;;;;5009736;28;20124;-77
2023/06/25 10:12:33;;;;;;;9.93;4.30;;;;;;;;;;5011573;28;20034;-77
2023/06/25 10:15:05;;;;;;;5.40;3.80;;;;;;;;;;4991744;28;20077;-78
2023/06/25 10:17:31;;;;;;;6.68;4.88;;;;;;;;;;5001107;28;20088;-78
2023/06/25 10:19:59;;;;;;;6.07;4.05;;;;;;;;;;5009270;28;20502;-78
2023/06/25 10:22:26;;;;;;;5.93;3.90;;;;;;;;;;5008892;28;20626;-78
2023/06/25 10:24:53;;;;;;;8.00;3.92;;;;;;;;;;5010974;28;20417;-79
2023/06/25 10:27:24;;;;;;;4.72;3.45;;;;;;;;;;5010215;28;20026;-78
2023/06/25 10:29:54;;;;;;;4.45;3.35;;;;;;;;;;5010216;28;20088;-78
2023/06/25 10:32:28;;;;;;;5.43;3.80;;;;;;;;;;5008766;28;20108;-76
2023/06/25 10:34:56;;;;;;;6.85;3.50;;;;;;;;;;5009262;28;20580;-79
2023/06/25 10:37:34;;;;;;;8.20;3.63;;;;;;;;;;5011177;28;20033;-80
2023/06/25 10:40:08;;;;;;;5.80;3.95;;;;;;;;;;5010238;28;20030;-78
2023/06/25 10:42:36;;;;;;;5.50;3.92;;;;;;;;;;5010658;28;20034;-79
2023/06/25 10:45:03;;;;;;;4.80;3.45;;;;;;;;;;5009514;28;20029;-78
2023/06/25 10:47:29;;;;;;;5.88;3.80;;;;;;;;;;5009104;28;20496;-78
2023/06/25 10:49:54;;;;;;;5.70;3.92;;;;;;;;;;5010402;28;20026;-77
2023/06/25 10:52:20;;;;;;;8.20;3.80;;;;;;;;;;5008778;28;20026;-77
2023/06/25 10:54:45;;;;;;;5.68;3.33;;;;;;;;;;5010516;28;20022;-77
2023/06/25 10:57:13;;;;;;;15.75;4.57;;;;;;;;;;5009028;28;20125;-77
2023/06/25 10:59:39;;;;;;;5.35;3.35;;;;;;;;;;5010261;28;20077;-79
2023/06/25 11:02:19;;;;;;;18.83;4.32;;;;;;;;;;5009814;28;20056;-79
2023/06/25 11:04:52;;;;;;;6.00;3.97;;;;;;;;;;5011119;28;20040;-79
2023/06/25 11:07:22;;;;;;;7.72;3.60;;;;;;;;;;5011165;28;20060;-79
2023/06/25 11:09:54;;;;;;;5.20;3.35;;;;;;;;;;5010994;28;20466;-79
2023/06/25 11:12:20;;;;;;;4.85;3.58;;;;;;;;;;5012838;28;20504;-78
2023/06/25 11:14:46;;;;;;;5.00;3.63;;;;;;;;;;5013592;28;20021;-76
2023/06/25 11:17:15;;;;;;;4.47;3.15;;;;;;;;;;5014656;28;20034;-78
2023/06/25 11:19:40;;;;;;;3.80;3.00;;;;;;;;;;5013854;28;20034;-78
2023/06/25 11:22:10;;;;;;;4.47;3.33;;;;;;;;;;5013034;28;20041;-79
2023/06/25 11:24:37;;;;;;;5.28;3.38;;;;;;;;;;5013318;28;20137;-77
2023/06/25 11:27:03;;;;;;;4.55;3.22;;;;;;;;;;5015484;28;20465;-78
2023/06/25 11:29:36;;;;;;;4.15;3.50;;;;;;;;;;5013074;28;20038;-80
2023/06/25 11:32:05;;;;;;;5.05;3.78;;;;;;;;;;5014083;28;20022;-77
2023/06/25 11:34:31;;;;;;;5.63;4.07;;;;;;;;;;5014080;28;20113;-79
2023/06/25 11:36:56;;;;;;;5.85;3.65;;;;;;;;;;5014815;28;20450;-76
2023/06/25 11:39:22;;;;;;;6.70;4.13;;;;;;;;;;5014203;28;20038;-78
2023/06/25 11:41:47;;;;;;;8.10;4.68;;;;;;;;;;5013432;28;20370;-78
2023/06/25 11:44:20;;;;;;;5.00;3.85;;;;;;;;;;5012890;28;20078;-79
2023/06/25 11:46:50;;;;;;;4.63;3.38;;;;;;;;;;5014029;28;20054;-78
2023/06/25 11:49:18;;;;;;;4.53;3.63;;;;;;;;;;5014307;28;20036;-79
2023/06/25 11:51:43;;;;;;;6.00;3.53;;;;;;;;;;5014321;28;20105;-79
2023/06/25 11:54:09;;;;;;;5.68;3.65;;;;;;;;;;5014649;28;20057;-78
2023/06/25 11:56:34;;;;;;;4.82;3.28;;;;;;;;;;5014098;28;20375;-78
2023/06/25 11:59:00;;;;;;;5.72;3.53;;;;;;;;;;5013821;28;20174;-79
2023/06/25 12:01:25;;;;;;;5.22;3.72;;;;;;;;;;5013243;28;20129;-77
2023/06/25 12:03:51;;;;;;;4.43;3.17;;;;;;;;;;5011677;28;20393;-77
2023/06/25 12:06:16;;;;;;;4.88;3.33;;;;;;;;;;5013241;28;20286;-78
2023/06/25 12:08:42;;;;;;;4.40;3.17;;;;;;;;;;5011845;28;20022;-79
2023/06/25 12:11:07;;;;;;;5.43;3.45;;;;;;;;;;5011692;28;20030;-78
2023/06/25 12:13:33;;;;;;;6.53;3.42;;;;;;;;;;5011850;28;20108;-77
2023/06/25 12:15:58;;;;;;;6.65;3.55;;;;;;;;;;5013435;28;20075;-77
2023/06/25 12:18:24;;;;;;;4.57;3.58;;;;;;;;;;5012505;28;20485;-78
2023/06/25 12:20:49;;;;;;;4.82;3.90;;;;;;;;;;5011489;28;20113;-78
2023/06/25 12:23:16;;;;;;;4.68;3.25;;;;;;;;;;5011370;28;20032;-78
2023/06/25 12:25:42;;;;;;;4.30;3.40;;;;;;;;;;5011805;28;20357;-78
2023/06/25 12:28:07;;;;;;;5.53;3.72;;;;;;;;;;5013864;28;20030;-78
2023/06/25 12:30:33;;;;;;;3.88;3.15;;;;;;;;;;5013542;28;20029;-78
2023/06/25 12:32:58;;;;;;;4.38;2.78;;;;;;;;;;5011470;28;20077;-78
2023/06/25 12:35:24;;;;;;;3.42;2.55;;;;;;;;;;5013145;28;20030;-78
2023/06/25 12:37:49;;;;;;;4.18;2.95;;;;;;;;;;5012672;28;20436;-76
2023/06/25 12:40:15;;;;;;;5.35;2.97;;;;;;;;;;5012294;28;20106;-80
2023/06/25 12:42:41;;;;;;;3.55;3.05;;;;;;;;;;5012631;28;20028;-77
2023/06/25 12:45:11;;;;;;;3.97;2.97;;;;;;;;;;5011610;28;20541;-80
2023/06/25 12:47:36;;;;;;;;;;;;;;;;;;4996414;28;20038;-78
2023/06/25 12:50:02;;;;;;;5.07;2.95;;;;;;;;;;5012792;28;19913;-77
2023/06/25 12:52:27;;;;;;;2.63;2.38;;;;;;;;;;5012370;28;20441;-78
2023/06/25 12:54:54;;;;;;;4.45;2.97;;;;;;;;;;5011811;28;20389;-78
2023/06/25 12:57:20;;;;;;;5.40;3.20;;;;;;;;;;5012683;28;20045;-76
2023/06/25 12:59:45;;;;;;;3.33;3.03;;;;;;;;;;5010957;28;20013;-77
2023/06/25 13:02:11;;;;;;;3.80;3.08;;;;;;;;;;5012347;28;20017;-79
2023/06/25 13:04:36;;;;;;;4.13;2.97;;;;;;;;;;5012563;28;20021;-78
2023/06/25 13:07:02;;;;;;;4.35;2.90;;;;;;;;;;5012896;28;20033;-78
2023/06/25 13:09:30;;;;;;;4.60;2.92;;;;;;;;;;5012081;28;20033;-77
2023/06/25 13:11:56;;;;;;;3.05;2.75;;;;;;;;;;5012583;28;20106;-77
2023/06/25 13:14:22;;;;;;;5.60;2.80;;;;;;;;;;5010633;28;20117;-79
2023/06/25 13:16:48;;;;;;;5.00;3.30;;;;;;;;;;5011252;28;20083;-78
2023/06/25 13:19:14;;;;;;;4.82;3.33;;;;;;;;;;5011234;28;20026;-76
2023/06/25 13:21:40;;;;;;;4.95;3.10;;;;;;;;;;5012198;28;20029;-77
2023/06/25 13:24:06;;;;;;;6.82;3.13;;;;;;;;;;5011645;28;20046;-77
2023/06/25 13:26:31;;;;;;;6.82;3.30;;;;;;;;;;5011521;28;20533;-77
2023/06/25 13:28:57;;;;;;;8.63;3.65;;;;;;;;;;5011729;28;20370;-77
2023/06/25 13:31:25;;;;;;;3.90;3.25;;;;;;;;;;5011397;28;20020;-78
2023/06/25 13:33:50;;;;;;;5.82;3.78;;;;;;;;;;5012164;28;20141;-76
2023/06/25 13:36:16;;;;;;;5.35;3.10;;;;;;;;;;5009754;28;20068;-78
2023/06/25 13:38:42;;;;;;;6.80;3.28;;;;;;;;;;5011683;28;20424;-77
2023/06/25 13:41:07;;;;;;;4.57;3.10;;;;;;;;;;5010553;28;20499;-79
2023/06/25 13:43:34;;;;;;;3.92;3.03;;;;;;;;;;5010102;28;20025;-77
2023/06/25 13:46:01;;;;;;;4.63;3.33;;;;;;;;;;5010119;28;20247;-78
2023/06/25 13:48:26;;;;;;;6.93;3.22;;;;;;;;;;5009848;28;20029;-78
2023/06/25 13:50:52;;;;;;;6.57;3.00;;;;;;;;;;5011524;28;20034;-77
2023/06/25 13:53:19;;;;;;;3.22;2.60;;;;;;;;;;5011485;28;20056;-77
2023/06/25 13:55:44;;;;;;;4.53;3.13;;;;;;;;;;5011642;28;20411;-77
2023/06/25 13:58:10;;;;;;;5.60;3.33;;;;;;;;;;5010056;28;20030;-80
2023/06/25 14:00:36;;;;;;;4.97;2.80;;;;;;;;;;5011985;28;20362;-78
2023/06/25 14:03:05;;;;;;;9.35;3.60;;;;;;;;;;5012210;28;20057;-78
2023/06/25 14:05:35;;;;;;;3.97;2.58;;;;;;;;;;5012752;28;20018;-79
2023/06/25 14:08:04;;;;;;;3.70;3.20;;;;;;;;;;5012095;28;20029;-78
2023/06/25 14:10:30;;;;;;;5.55;3.45;;;;;;;;;;5011723;28;20778;-78
2023/06/25 14:12:58;;;;;;;4.45;3.38;;;;;;;;;;5010895;28;20018;-79
2023/06/25 14:15:28;;;;;;;4.72;3.30;;;;;;;;;;5011095;28;20022;-79
2023/06/25 14:17:53;;;;;;;4.38;2.95;;;;;;;;;;5011820;28;20470;-78
2023/06/25 14:20:19;;;;;;;4.10;2.90;;;;;;;;;;5011591;28;20064;-80
2023/06/25 14:22:45;;;;;;;3.00;2.53;;;;;;;;;;5011376;28;20478;-77
2023/06/25 14:25:10;;;;;;;4.82;2.88;;;;;;;;;;5011801;28;20034;-79
2023/06/25 14:27:36;;;;;;;5.75;3.00;;;;;;;;;;5011392;28;20041;-78
2023/06/25 14:30:02;;;;;;;4.07;2.55;;;;;;;;;;5012123;28;20033;-79
2023/06/25 14:32:27;;;;;;;3.58;2.72;;;;;;;;;;5009660;28;20125;-78
2023/06/25 14:34:53;;;;;;;3.20;2.67;;;;;;;;;;5010671;28;20104;-78